Thaxton, Mississippi
Current Conditions -  °F | °C
As of 12:35 PM on Sunday 21 Dec 2014 (Local Time) from KUOX Reporting Station
Clear Clear  
Wind Chill: 54°   Ceiling: Unl
Heat Index: 54°   Visibility: 10mi
Dew Point: 32°   Wind: 3mph
Humidity: 44%   Direction: 100°E
Pressure: 30.11"   Gusts: NA
Location:  34.31°N, 89.18°W
Report Text: KUOX 211835Z AUTO 10003KT 10SM CLR 12/00 A3011 RMK AO2 PWINO PNO
Loading
Personal Weather Stations






























Interactive Weather Map New forecast layout! Learn more

10-Day Weather Forecast

Advertisements
Track Severe Weather on mobile